sensor_id;sensor_type;location;lat;lon;timestamp;temperature;humidity
11647;DHT22;5880;52.342;9.662;2023-04-03T00:00:28;5.90;48.00
11647;DHT22;5880;52.342;9.662;2023-04-03T00:02:54;5.90;48.00
11647;DHT22;5880;52.342;9.662;2023-04-03T00:05:20;5.90;48.10
11647;DHT22;5880;52.342;9.662;2023-04-03T00:07:45;5.90;48.30
11647;DHT22;5880;52.342;9.662;2023-04-03T00:10:12;5.80;48.20
11647;DHT22;5880;52.342;9.662;2023-04-03T00:12:39;5.80;48.30
11647;DHT22;5880;52.342;9.662;2023-04-03T00:15:05;5.80;48.20
11647;DHT22;5880;52.342;9.662;2023-04-03T00:17:31;5.80;48.30
11647;DHT22;5880;52.342;9.662;2023-04-03T00:19:56;5.80;48.30
11647;DHT22;5880;52.342;9.662;2023-04-03T00:22:22;5.80;48.40
11647;DHT22;5880;52.342;9.662;2023-04-03T00:24:48;5.80;48.40
11647;DHT22;5880;52.342;9.662;2023-04-03T00:27:14;5.80;48.50
11647;DHT22;5880;52.342;9.662;2023-04-03T00:29:41;5.80;48.50
11647;DHT22;5880;52.342;9.662;2023-04-03T00:32:06;5.80;48.50
11647;DHT22;5880;52.342;9.662;2023-04-03T00:34:32;5.70;48.50
11647;DHT22;5880;52.342;9.662;2023-04-03T00:36:58;5.70;48.50
11647;DHT22;5880;52.342;9.662;2023-04-03T00:39:23;5.70;48.60
11647;DHT22;5880;52.342;9.662;2023-04-03T00:41:49;5.70;48.60
11647;DHT22;5880;52.342;9.662;2023-04-03T00:47:11;5.60;48.80
11647;DHT22;5880;52.342;9.662;2023-04-03T00:49:38;5.60;48.60
11647;DHT22;5880;52.342;9.662;2023-04-03T00:52:07;5.60;48.60
11647;DHT22;5880;52.342;9.662;2023-04-03T00:54:38;5.60;48.70
11647;DHT22;5880;52.342;9.662;2023-04-03T00:57:06;5.50;48.70
11647;DHT22;5880;52.342;9.662;2023-04-03T00:59:35;5.50;48.90
11647;DHT22;5880;52.342;9.662;2023-04-03T01:02:07;5.50;49.00
11647;DHT22;5880;52.342;9.662;2023-04-03T01:04:35;5.50;49.00
11647;DHT22;5880;52.342;9.662;2023-04-03T01:07:11;5.50;49.00
11647;DHT22;5880;52.342;9.662;2023-04-03T01:09:41;5.50;49.10
11647;DHT22;5880;52.342;9.662;2023-04-03T01:14:52;5.40;49.10
11647;DHT22;5880;52.342;9.662;2023-04-03T01:26:37;5.30;49.20
11647;DHT22;5880;52.342;9.662;2023-04-03T01:29:04;5.30;48.90
11647;DHT22;5880;52.342;9.662;2023-04-03T01:31:46;5.20;49.00
11647;DHT22;5880;52.342;9.662;2023-04-03T01:34:14;5.30;49.30
11647;DHT22;5880;52.342;9.662;2023-04-03T01:36:39;5.20;49.20
11647;DHT22;5880;52.342;9.662;2023-04-03T01:39:06;5.20;49.40
11647;DHT22;5880;52.342;9.662;2023-04-03T01:41:31;5.10;49.50
11647;DHT22;5880;52.342;9.662;2023-04-03T01:43:57;5.10;49.50
11647;DHT22;5880;52.342;9.662;2023-04-03T01:46:23;5.10;49.50
11647;DHT22;5880;52.342;9.662;2023-04-03T01:48:50;5.10;49.60
11647;DHT22;5880;52.342;9.662;2023-04-03T01:51:16;5.10;49.60
11647;DHT22;5880;52.342;9.662;2023-04-03T01:53:42;5.10;49.60
11647;DHT22;5880;52.342;9.662;2023-04-03T01:56:08;5.00;49.70
11647;DHT22;5880;52.342;9.662;2023-04-03T01:58:34;5.10;49.80
11647;DHT22;5880;52.342;9.662;2023-04-03T02:01:00;5.00;49.80
11647;DHT22;5880;52.342;9.662;2023-04-03T02:03:26;5.00;49.90
11647;DHT22;5880;52.342;9.662;2023-04-03T02:05:52;5.00;50.00
11647;DHT22;5880;52.342;9.662;2023-04-03T02:08:18;4.90;50.00
11647;DHT22;5880;52.342;9.662;2023-04-03T02:10:46;5.10;50.30
11647;DHT22;5880;52.342;9.662;2023-04-03T02:13:13;4.90;50.10
11647;DHT22;5880;52.342;9.662;2023-04-03T02:15:39;4.90;50.10
11647;DHT22;5880;52.342;9.662;2023-04-03T02:18:05;4.80;50.10
11647;DHT22;5880;52.342;9.662;2023-04-03T02:20:31;4.80;50.30
11647;DHT22;5880;52.342;9.662;2023-04-03T02:22:58;4.80;50.20
11647;DHT22;5880;52.342;9.662;2023-04-03T02:25:24;4.80;50.30
11647;DHT22;5880;52.342;9.662;2023-04-03T02:27:50;4.80;50.40
11647;DHT22;5880;52.342;9.662;2023-04-03T02:30:15;4.70;50.40
11647;DHT22;5880;52.342;9.662;2023-04-03T02:32:42;4.70;50.40
11647;DHT22;5880;52.342;9.662;2023-04-03T02:35:09;4.80;50.50
11647;DHT22;5880;52.342;9.662;2023-04-03T02:37:36;4.70;50.50
11647;DHT22;5880;52.342;9.662;2023-04-03T02:40:02;4.70;50.50
11647;DHT22;5880;52.342;9.662;2023-04-03T02:42:29;4.70;50.50
11647;DHT22;5880;52.342;9.662;2023-04-03T02:44:55;4.70;50.60
11647;DHT22;5880;52.342;9.662;2023-04-03T02:47:21;4.70;50.70
11647;DHT22;5880;52.342;9.662;2023-04-03T02:49:46;4.60;50.70
11647;DHT22;5880;52.342;9.662;2023-04-03T02:52:13;4.60;50.70
11647;DHT22;5880;52.342;9.662;2023-04-03T02:54:39;4.60;50.80
11647;DHT22;5880;52.342;9.662;2023-04-03T02:57:06;4.60;50.80
11647;DHT22;5880;52.342;9.662;2023-04-03T02:59:35;4.60;50.90
11647;DHT22;5880;52.342;9.662;2023-04-03T03:02:10;4.50;51.00
11647;DHT22;5880;52.342;9.662;2023-04-03T03:04:36;4.60;51.20
11647;DHT22;5880;52.342;9.662;2023-04-03T03:07:02;4.50;51.20
11647;DHT22;5880;52.342;9.662;2023-04-03T03:09:29;4.50;51.20
11647;DHT22;5880;52.342;9.662;2023-04-03T03:11:55;4.50;51.20
11647;DHT22;5880;52.342;9.662;2023-04-03T03:14:22;4.50;51.30
11647;DHT22;5880;52.342;9.662;2023-04-03T03:16:48;4.50;51.30
11647;DHT22;5880;52.342;9.662;2023-04-03T03:19:13;4.40;51.20
11647;DHT22;5880;52.342;9.662;2023-04-03T03:21:39;5.10;51.70
11647;DHT22;5880;52.342;9.662;2023-04-03T03:24:05;4.40;51.20
11647;DHT22;5880;52.342;9.662;2023-04-03T03:26:31;4.40;51.30
11647;DHT22;5880;52.342;9.662;2023-04-03T03:28:57;4.30;51.50
11647;DHT22;5880;52.342;9.662;2023-04-03T03:31:23;4.30;51.40
11647;DHT22;5880;52.342;9.662;2023-04-03T03:33:48;4.30;51.60
11647;DHT22;5880;52.342;9.662;2023-04-03T03:36:14;4.30;51.60
11647;DHT22;5880;52.342;9.662;2023-04-03T03:38:40;4.30;51.60
11647;DHT22;5880;52.342;9.662;2023-04-03T03:41:06;4.30;51.70
11647;DHT22;5880;52.342;9.662;2023-04-03T03:43:32;4.20;51.80
11647;DHT22;5880;52.342;9.662;2023-04-03T03:45:57;4.20;51.80
11647;DHT22;5880;52.342;9.662;2023-04-03T03:48:23;4.20;51.90
11647;DHT22;5880;52.342;9.662;2023-04-03T03:50:49;4.20;51.90
11647;DHT22;5880;52.342;9.662;2023-04-03T03:53:15;4.20;52.00
11647;DHT22;5880;52.342;9.662;2023-04-03T03:55:41;4.20;52.10
11647;DHT22;5880;52.342;9.662;2023-04-03T03:58:07;4.20;52.30
11647;DHT22;5880;52.342;9.662;2023-04-03T04:00:33;4.10;52.20
11647;DHT22;5880;52.342;9.662;2023-04-03T04:02:58;4.10;52.20
11647;DHT22;5880;52.342;9.662;2023-04-03T04:05:24;4.10;52.20
11647;DHT22;5880;52.342;9.662;2023-04-03T04:07:50;4.10;52.10
11647;DHT22;5880;52.342;9.662;2023-04-03T04:10:16;4.10;52.20
11647;DHT22;5880;52.342;9.662;2023-04-03T04:12:42;4.10;52.30
11647;DHT22;5880;52.342;9.662;2023-04-03T04:15:08;4.10;52.30
11647;DHT22;5880;52.342;9.662;2023-04-03T04:17:34;4.10;52.40
11647;DHT22;5880;52.342;9.662;2023-04-03T04:20:03;4.10;52.30
11647;DHT22;5880;52.342;9.662;2023-04-03T04:22:30;4.00;52.30
11647;DHT22;5880;52.342;9.662;2023-04-03T04:24:56;4.00;52.20
11647;DHT22;5880;52.342;9.662;2023-04-03T04:27:21;4.10;52.50
11647;DHT22;5880;52.342;9.662;2023-04-03T04:29:47;4.00;52.40
11647;DHT22;5880;52.342;9.662;2023-04-03T04:32:12;4.00;52.40
11647;DHT22;5880;52.342;9.662;2023-04-03T04:34:38;4.00;52.40
11647;DHT22;5880;52.342;9.662;2023-04-03T04:37:04;4.00;52.40
11647;DHT22;5880;52.342;9.662;2023-04-03T04:39:30;4.10;52.50
11647;DHT22;5880;52.342;9.662;2023-04-03T04:41:56;4.00;52.50
11647;DHT22;5880;52.342;9.662;2023-04-03T04:44:22;4.00;52.60
11647;DHT22;5880;52.342;9.662;2023-04-03T04:46:47;4.00;52.60
11647;DHT22;5880;52.342;9.662;2023-04-03T04:49:13;4.00;52.60
11647;DHT22;5880;52.342;9.662;2023-04-03T04:51:39;4.00;52.60
11647;DHT22;5880;52.342;9.662;2023-04-03T04:54:04;4.00;52.80
11647;DHT22;5880;52.342;9.662;2023-04-03T04:56:30;4.00;52.80
11647;DHT22;5880;52.342;9.662;2023-04-03T04:58:56;4.00;52.90
11647;DHT22;5880;52.342;9.662;2023-04-03T05:01:22;4.00;52.90
11647;DHT22;5880;52.342;9.662;2023-04-03T05:03:47;4.00;52.90
11647;DHT22;5880;52.342;9.662;2023-04-03T05:06:13;4.00;52.90
11647;DHT22;5880;52.342;9.662;2023-04-03T05:08:39;4.00;52.90
11647;DHT22;5880;52.342;9.662;2023-04-03T05:11:04;4.00;53.00
11647;DHT22;5880;52.342;9.662;2023-04-03T05:13:30;4.00;53.10
11647;DHT22;5880;52.342;9.662;2023-04-03T05:15:56;4.00;53.10
11647;DHT22;5880;52.342;9.662;2023-04-03T05:18:22;4.00;53.30
11647;DHT22;5880;52.342;9.662;2023-04-03T05:20:50;3.90;53.30
11647;DHT22;5880;52.342;9.662;2023-04-03T05:23:16;4.00;53.60
11647;DHT22;5880;52.342;9.662;2023-04-03T05:25:42;4.00;53.60
11647;DHT22;5880;52.342;9.662;2023-04-03T05:28:10;4.00;53.60
11647;DHT22;5880;52.342;9.662;2023-04-03T05:30:36;4.00;53.60
11647;DHT22;5880;52.342;9.662;2023-04-03T05:33:02;4.00;53.60
11647;DHT22;5880;52.342;9.662;2023-04-03T05:35:27;4.00;53.60
11647;DHT22;5880;52.342;9.662;2023-04-03T05:37:53;4.00;53.80
11647;DHT22;5880;52.342;9.662;2023-04-03T05:40:19;4.00;53.90
11647;DHT22;5880;52.342;9.662;2023-04-03T05:42:44;4.00;54.10
11647;DHT22;5880;52.342;9.662;2023-04-03T05:45:10;4.20;54.30
11647;DHT22;5880;52.342;9.662;2023-04-03T05:47:36;4.00;54.30
11647;DHT22;5880;52.342;9.662;2023-04-03T05:50:02;4.10;54.60
11647;DHT22;5880;52.342;9.662;2023-04-03T05:52:36;4.10;55.50
11647;DHT22;5880;52.342;9.662;2023-04-03T05:55:03;4.20;55.20
11647;DHT22;5880;52.342;9.662;2023-04-03T05:57:29;4.20;55.00
11647;DHT22;5880;52.342;9.662;2023-04-03T05:59:55;4.30;55.30
11647;DHT22;5880;52.342;9.662;2023-04-03T06:02:22;4.30;55.10
11647;DHT22;5880;52.342;9.662;2023-04-03T06:04:49;4.40;55.30
11647;DHT22;5880;52.342;9.662;2023-04-03T06:07:20;4.40;55.30
11647;DHT22;5880;52.342;9.662;2023-04-03T06:09:49;4.50;55.50
11647;DHT22;5880;52.342;9.662;2023-04-03T06:12:17;4.60;55.60
11647;DHT22;5880;52.342;9.662;2023-04-03T06:14:43;4.70;56.00
11647;DHT22;5880;52.342;9.662;2023-04-03T06:17:09;4.90;56.80
11647;DHT22;5880;52.342;9.662;2023-04-03T06:19:37;5.00;58.70
11647;DHT22;5880;52.342;9.662;2023-04-03T06:22:03;5.30;61.20
11647;DHT22;5880;52.342;9.662;2023-04-03T06:24:29;5.80;62.60
11647;DHT22;5880;52.342;9.662;2023-04-03T06:26:56;6.30;63.90
11647;DHT22;5880;52.342;9.662;2023-04-03T06:29:22;6.90;63.60
11647;DHT22;5880;52.342;9.662;2023-04-03T06:31:49;7.50;63.70
11647;DHT22;5880;52.342;9.662;2023-04-03T06:34:15;8.10;61.30
11647;DHT22;5880;52.342;9.662;2023-04-03T06:36:42;8.80;63.00
11647;DHT22;5880;52.342;9.662;2023-04-03T06:39:11;9.40;63.20
11647;DHT22;5880;52.342;9.662;2023-04-03T06:41:39;10.10;62.20
11647;DHT22;5880;52.342;9.662;2023-04-03T06:44:05;10.60;60.30
11647;DHT22;5880;52.342;9.662;2023-04-03T06:46:31;11.20;60.20
11647;DHT22;5880;52.342;9.662;2023-04-03T06:48:57;11.70;56.50
11647;DHT22;5880;52.342;9.662;2023-04-03T06:51:28;12.20;58.00
11647;DHT22;5880;52.342;9.662;2023-04-03T06:53:56;12.60;54.20
11647;DHT22;5880;52.342;9.662;2023-04-03T06:56:24;13.00;48.80
11647;DHT22;5880;52.342;9.662;2023-04-03T06:58:51;13.20;44.90
11647;DHT22;5880;52.342;9.662;2023-04-03T07:01:19;13.50;47.60
11647;DHT22;5880;52.342;9.662;2023-04-03T07:03:47;13.70;48.90
11647;DHT22;5880;52.342;9.662;2023-04-03T07:06:14;14.00;48.80
11647;DHT22;5880;52.342;9.662;2023-04-03T07:08:41;14.20;47.30
11647;DHT22;5880;52.342;9.662;2023-04-03T07:11:08;14.50;44.10
11647;DHT22;5880;52.342;9.662;2023-04-03T07:13:35;14.70;45.20
11647;DHT22;5880;52.342;9.662;2023-04-03T07:16:02;14.90;41.00
11647;DHT22;5880;52.342;9.662;2023-04-03T07:18:30;15.20;41.60
11647;DHT22;5880;52.342;9.662;2023-04-03T07:20:56;15.40;42.10
11647;DHT22;5880;52.342;9.662;2023-04-03T07:23:23;15.60;43.90
11647;DHT22;5880;52.342;9.662;2023-04-03T07:25:50;15.70;39.30
11647;DHT22;5880;52.342;9.662;2023-04-03T07:28:18;15.90;42.70
11647;DHT22;5880;52.342;9.662;2023-04-03T07:30:47;16.10;42.10
11647;DHT22;5880;52.342;9.662;2023-04-03T07:33:20;16.30;43.90
11647;DHT22;5880;52.342;9.662;2023-04-03T07:35:47;16.60;41.00
11647;DHT22;5880;52.342;9.662;2023-04-03T07:38:12;16.70;36.70
11647;DHT22;5880;52.342;9.662;2023-04-03T07:40:39;16.80;36.60
11647;DHT22;5880;52.342;9.662;2023-04-03T07:43:05;16.80;35.10
11647;DHT22;5880;52.342;9.662;2023-04-03T07:45:32;16.90;36.50
11647;DHT22;5880;52.342;9.662;2023-04-03T07:48:00;16.80;33.40
11647;DHT22;5880;52.342;9.662;2023-04-03T07:50:26;16.90;36.20
11647;DHT22;5880;52.342;9.662;2023-04-03T07:52:52;17.00;37.80
11647;DHT22;5880;52.342;9.662;2023-04-03T07:55:19;17.00;37.30
11647;DHT22;5880;52.342;9.662;2023-04-03T07:57:45;17.20;35.30
11647;DHT22;5880;52.342;9.662;2023-04-03T08:00:12;17.30;38.20
11647;DHT22;5880;52.342;9.662;2023-04-03T08:02:38;17.50;36.60
11647;DHT22;5880;52.342;9.662;2023-04-03T08:05:05;17.60;33.30
11647;DHT22;5880;52.342;9.662;2023-04-03T08:07:30;17.60;30.20
11647;DHT22;5880;52.342;9.662;2023-04-03T08:09:56;17.50;31.70
11647;DHT22;5880;52.342;9.662;2023-04-03T08:12:22;17.30;30.70
11647;DHT22;5880;52.342;9.662;2023-04-03T08:14:48;17.00;29.40
11647;DHT22;5880;52.342;9.662;2023-04-03T08:17:13;16.60;30.00
11647;DHT22;5880;52.342;9.662;2023-04-03T08:19:39;16.20;29.80
11647;DHT22;5880;52.342;9.662;2023-04-03T08:22:05;16.00;30.70
11647;DHT22;5880;52.342;9.662;2023-04-03T08:24:35;15.90;32.80
11647;DHT22;5880;52.342;9.662;2023-04-03T08:27:00;15.70;32.30
11647;DHT22;5880;52.342;9.662;2023-04-03T08:29:26;15.60;33.40
11647;DHT22;5880;52.342;9.662;2023-04-03T08:31:52;15.50;34.30
11647;DHT22;5880;52.342;9.662;2023-04-03T08:34:19;15.40;34.70
11647;DHT22;5880;52.342;9.662;2023-04-03T08:36:45;15.20;33.20
11647;DHT22;5880;52.342;9.662;2023-04-03T08:39:11;15.00;33.10
11647;DHT22;5880;52.342;9.662;2023-04-03T08:41:39;14.80;32.60
11647;DHT22;5880;52.342;9.662;2023-04-03T08:44:25;14.60;32.60
11647;DHT22;5880;52.342;9.662;2023-04-03T08:47:28;14.30;32.30
11647;DHT22;5880;52.342;9.662;2023-04-03T08:50:12;14.20;32.30
11647;DHT22;5880;52.342;9.662;2023-04-03T08:52:58;14.00;32.50
11647;DHT22;5880;52.342;9.662;2023-04-03T08:58:05;14.00;34.90
11647;DHT22;5880;52.342;9.662;2023-04-03T09:00:51;13.90;35.00
11647;DHT22;5880;52.342;9.662;2023-04-03T09:03:21;13.90;34.00
11647;DHT22;5880;52.342;9.662;2023-04-03T09:05:57;13.80;33.70
11647;DHT22;5880;52.342;9.662;2023-04-03T09:08:31;13.60;31.80
11647;DHT22;5880;52.342;9.662;2023-04-03T09:17:20;13.40;30.40
11647;DHT22;5880;52.342;9.662;2023-04-03T09:19:54;13.60;34.70
11647;DHT22;5880;52.342;9.662;2023-04-03T09:22:28;13.80;35.70
11647;DHT22;5880;52.342;9.662;2023-04-03T09:25:10;13.90;30.30
11647;DHT22;5880;52.342;9.662;2023-04-03T09:27:39;14.10;29.80
11647;DHT22;5880;52.342;9.662;2023-04-03T09:30:06;14.20;30.90
11647;DHT22;5880;52.342;9.662;2023-04-03T09:32:37;14.10;27.70
11647;DHT22;5880;52.342;9.662;2023-04-03T09:35:27;13.70;27.20
11647;DHT22;5880;52.342;9.662;2023-04-03T09:38:00;13.50;27.80
11647;DHT22;5880;52.342;9.662;2023-04-03T09:40:41;13.20;28.60
11647;DHT22;5880;52.342;9.662;2023-04-03T09:43:22;13.00;29.60
11647;DHT22;5880;52.342;9.662;2023-04-03T09:45:50;12.90;30.20
11647;DHT22;5880;52.342;9.662;2023-04-03T09:48:26;12.90;31.70
11647;DHT22;5880;52.342;9.662;2023-04-03T09:51:01;12.90;32.00
11647;DHT22;5880;52.342;9.662;2023-04-03T09:53:43;12.80;32.40
11647;DHT22;5880;52.342;9.662;2023-04-03T09:58:44;12.80;32.40
11647;DHT22;5880;52.342;9.662;2023-04-03T10:04:22;13.00;33.50
11647;DHT22;5880;52.342;9.662;2023-04-03T10:06:52;13.00;31.30
11647;DHT22;5880;52.342;9.662;2023-04-03T10:09:23;12.80;29.00
11647;DHT22;5880;52.342;9.662;2023-04-03T10:12:10;12.80;29.80
11647;DHT22;5880;52.342;9.662;2023-04-03T10:14:40;12.70;28.50
11647;DHT22;5880;52.342;9.662;2023-04-03T10:20:07;13.00;28.50
11647;DHT22;5880;52.342;9.662;2023-04-03T10:30:56;13.60;26.40
11647;DHT22;5880;52.342;9.662;2023-04-03T10:34:11;13.60;26.70
11647;DHT22;5880;52.342;9.662;2023-04-03T10:45:24;13.60;25.80
11647;DHT22;5880;52.342;9.662;2023-04-03T10:51:23;13.50;28.50
11647;DHT22;5880;52.342;9.662;2023-04-03T10:54:38;13.50;26.90
11647;DHT22;5880;52.342;9.662;2023-04-03T10:57:10;13.30;28.40
11647;DHT22;5880;52.342;9.662;2023-04-03T10:59:43;13.20;27.30
11647;DHT22;5880;52.342;9.662;2023-04-03T11:05:53;13.00;26.70
11647;DHT22;5880;52.342;9.662;2023-04-03T11:08:35;12.90;27.50
11647;DHT22;5880;52.342;9.662;2023-04-03T11:11:27;12.90;28.00
11647;DHT22;5880;52.342;9.662;2023-04-03T11:14:01;13.00;29.00
11647;DHT22;5880;52.342;9.662;2023-04-03T11:16:40;12.90;29.00
11647;DHT22;5880;52.342;9.662;2023-04-03T11:19:20;12.80;27.60
11647;DHT22;5880;52.342;9.662;2023-04-03T11:22:05;12.70;25.30
11647;DHT22;5880;52.342;9.662;2023-04-03T11:28:01;12.40;27.40
11647;DHT22;5880;52.342;9.662;2023-04-03T11:30:47;12.30;28.20
11647;DHT22;5880;52.342;9.662;2023-04-03T11:36:10;12.10;29.60
11647;DHT22;5880;52.342;9.662;2023-04-03T11:38:46;12.00;29.50
11647;DHT22;5880;52.342;9.662;2023-04-03T11:41:16;11.90;27.50
11647;DHT22;5880;52.342;9.662;2023-04-03T11:44:01;11.80;29.20
11647;DHT22;5880;52.342;9.662;2023-04-03T11:46:54;11.70;29.50
11647;DHT22;5880;52.342;9.662;2023-04-03T12:00:59;11.40;30.40
11647;DHT22;5880;52.342;9.662;2023-04-03T12:16:33;11.20;31.80
11647;DHT22;5880;52.342;9.662;2023-04-03T12:19:38;11.20;32.20
11647;DHT22;5880;52.342;9.662;2023-04-03T12:22:18;11.20;29.80
11647;DHT22;5880;52.342;9.662;2023-04-03T12:24:51;11.10;30.00
11647;DHT22;5880;52.342;9.662;2023-04-03T12:27:34;11.10;31.60
11647;DHT22;5880;52.342;9.662;2023-04-03T12:30:27;11.10;32.10
11647;DHT22;5880;52.342;9.662;2023-04-03T12:33:02;11.20;30.80
11647;DHT22;5880;52.342;9.662;2023-04-03T12:35:42;11.10;29.70
11647;DHT22;5880;52.342;9.662;2023-04-03T12:38:39;11.10;31.10
11647;DHT22;5880;52.342;9.662;2023-04-03T12:41:38;11.10;30.90
11647;DHT22;5880;52.342;9.662;2023-04-03T12:44:35;11.10;30.90
11647;DHT22;5880;52.342;9.662;2023-04-03T12:47:24;11.00;30.60
11647;DHT22;5880;52.342;9.662;2023-04-03T12:49:54;11.00;31.40
11647;DHT22;5880;52.342;9.662;2023-04-03T12:52:44;11.00;31.00
11647;DHT22;5880;52.342;9.662;2023-04-03T12:55:15;11.00;29.50
11647;DHT22;5880;52.342;9.662;2023-04-03T12:57:43;11.00;31.30
11647;DHT22;5880;52.342;9.662;2023-04-03T13:00:39;11.00;31.30
11647;DHT22;5880;52.342;9.662;2023-04-03T13:03:06;11.20;30.10
11647;DHT22;5880;52.342;9.662;2023-04-03T13:05:45;11.20;30.20
11647;DHT22;5880;52.342;9.662;2023-04-03T13:08:13;11.20;29.90
11647;DHT22;5880;52.342;9.662;2023-04-03T13:13:21;11.20;29.00
11647;DHT22;5880;52.342;9.662;2023-04-03T13:15:48;11.20;29.60
11647;DHT22;5880;52.342;9.662;2023-04-03T13:18:30;11.20;30.20
11647;DHT22;5880;52.342;9.662;2023-04-03T13:21:16;11.30;29.40
11647;DHT22;5880;52.342;9.662;2023-04-03T13:23:47;11.40;29.50
11647;DHT22;5880;52.342;9.662;2023-04-03T13:26:17;11.50;31.30
11647;DHT22;5880;52.342;9.662;2023-04-03T13:28:46;11.60;31.80
11647;DHT22;5880;52.342;9.662;2023-04-03T13:34:05;11.60;29.40
11647;DHT22;5880;52.342;9.662;2023-04-03T13:36:34;11.60;28.80
11647;DHT22;5880;52.342;9.662;2023-04-03T13:39:31;11.60;29.80
11647;DHT22;5880;52.342;9.662;2023-04-03T13:42:24;11.60;28.70
11647;DHT22;5880;52.342;9.662;2023-04-03T13:48:08;11.40;29.60
11647;DHT22;5880;52.342;9.662;2023-04-03T13:51:00;11.40;29.40
11647;DHT22;5880;52.342;9.662;2023-04-03T13:53:29;11.40;28.70
11647;DHT22;5880;52.342;9.662;2023-04-03T13:58:34;11.60;30.10
11647;DHT22;5880;52.342;9.662;2023-04-03T14:01:09;11.60;29.80
11647;DHT22;5880;52.342;9.662;2023-04-03T14:03:45;11.70;29.60
11647;DHT22;5880;52.342;9.662;2023-04-03T14:06:20;11.60;29.00
11647;DHT22;5880;52.342;9.662;2023-04-03T14:08:47;11.50;29.20
11647;DHT22;5880;52.342;9.662;2023-04-03T14:11:17;11.50;28.70
11647;DHT22;5880;52.342;9.662;2023-04-03T14:13:46;11.40;28.80
11647;DHT22;5880;52.342;9.662;2023-04-03T14:16:20;11.40;29.90
11647;DHT22;5880;52.342;9.662;2023-04-03T14:18:49;11.30;29.70
11647;DHT22;5880;52.342;9.662;2023-04-03T14:21:17;11.30;29.70
11647;DHT22;5880;52.342;9.662;2023-04-03T14:23:45;11.20;27.90
11647;DHT22;5880;52.342;9.662;2023-04-03T14:26:17;11.20;27.80
11647;DHT22;5880;52.342;9.662;2023-04-03T14:28:48;11.20;28.40
11647;DHT22;5880;52.342;9.662;2023-04-03T14:31:17;11.30;28.80
11647;DHT22;5880;52.342;9.662;2023-04-03T14:33:44;11.30;29.50
11647;DHT22;5880;52.342;9.662;2023-04-03T14:36:31;11.30;29.90
11647;DHT22;5880;52.342;9.662;2023-04-03T14:39:00;11.40;28.60
11647;DHT22;5880;52.342;9.662;2023-04-03T14:41:28;11.40;28.70
11647;DHT22;5880;52.342;9.662;2023-04-03T14:43:53;11.50;29.60
11647;DHT22;5880;52.342;9.662;2023-04-03T14:46:37;11.50;30.00
11647;DHT22;5880;52.342;9.662;2023-04-03T14:49:34;11.50;27.80
11647;DHT22;5880;52.342;9.662;2023-04-03T14:51:59;11.50;28.20
11647;DHT22;5880;52.342;9.662;2023-04-03T14:54:25;11.50;30.00
11647;DHT22;5880;52.342;9.662;2023-04-03T14:56:54;11.40;29.20
11647;DHT22;5880;52.342;9.662;2023-04-03T14:59:21;11.40;28.50
11647;DHT22;5880;52.342;9.662;2023-04-03T15:01:48;11.30;28.60
11647;DHT22;5880;52.342;9.662;2023-04-03T15:04:19;11.30;29.20
11647;DHT22;5880;52.342;9.662;2023-04-03T15:06:47;11.30;29.80
11647;DHT22;5880;52.342;9.662;2023-04-03T15:09:25;11.40;30.20
11647;DHT22;5880;52.342;9.662;2023-04-03T15:11:53;11.40;29.70
11647;DHT22;5880;52.342;9.662;2023-04-03T15:14:20;11.40;29.70
11647;DHT22;5880;52.342;9.662;2023-04-03T15:16:46;11.50;29.90
11647;DHT22;5880;52.342;9.662;2023-04-03T15:19:13;11.50;28.10
11647;DHT22;5880;52.342;9.662;2023-04-03T15:21:39;11.50;28.80
11647;DHT22;5880;52.342;9.662;2023-04-03T15:24:05;11.50;28.40
11647;DHT22;5880;52.342;9.662;2023-04-03T15:26:32;11.50;29.50
11647;DHT22;5880;52.342;9.662;2023-04-03T15:28:58;11.60;29.40
11647;DHT22;5880;52.342;9.662;2023-04-03T15:31:23;11.50;28.70
11647;DHT22;5880;52.342;9.662;2023-04-03T15:33:49;11.50;27.60
11647;DHT22;5880;52.342;9.662;2023-04-03T15:36:15;11.40;28.60
11647;DHT22;5880;52.342;9.662;2023-04-03T15:38:40;11.40;28.40
11647;DHT22;5880;52.342;9.662;2023-04-03T15:41:06;11.30;28.50
11647;DHT22;5880;52.342;9.662;2023-04-03T15:43:32;11.30;29.20
11647;DHT22;5880;52.342;9.662;2023-04-03T15:45:59;11.20;29.60
11647;DHT22;5880;52.342;9.662;2023-04-03T15:48:26;11.20;30.10
11647;DHT22;5880;52.342;9.662;2023-04-03T15:50:53;11.10;29.50
11647;DHT22;5880;52.342;9.662;2023-04-03T15:53:19;11.10;30.00
11647;DHT22;5880;52.342;9.662;2023-04-03T15:55:45;11.20;29.70
11647;DHT22;5880;52.342;9.662;2023-04-03T15:58:10;11.10;29.70
11647;DHT22;5880;52.342;9.662;2023-04-03T16:00:36;11.20;29.60
11647;DHT22;5880;52.342;9.662;2023-04-03T16:03:17;11.20;29.00
11647;DHT22;5880;52.342;9.662;2023-04-03T16:05:45;11.20;28.70
11647;DHT22;5880;52.342;9.662;2023-04-03T16:08:11;11.10;28.00
11647;DHT22;5880;52.342;9.662;2023-04-03T16:10:38;11.10;28.00
11647;DHT22;5880;52.342;9.662;2023-04-03T16:13:05;11.10;28.20
11647;DHT22;5880;52.342;9.662;2023-04-03T16:15:32;11.00;28.70
11647;DHT22;5880;52.342;9.662;2023-04-03T16:18:01;11.00;28.80
11647;DHT22;5880;52.342;9.662;2023-04-03T16:20:27;10.90;28.20
11647;DHT22;5880;52.342;9.662;2023-04-03T16:22:53;10.90;28.40
11647;DHT22;5880;52.342;9.662;2023-04-03T16:25:23;10.80;29.30
11647;DHT22;5880;52.342;9.662;2023-04-03T16:27:49;10.80;29.10
11647;DHT22;5880;52.342;9.662;2023-04-03T16:30:14;10.70;29.50
11647;DHT22;5880;52.342;9.662;2023-04-03T16:32:40;10.70;30.00
11647;DHT22;5880;52.342;9.662;2023-04-03T16:35:06;11.20;30.20
11647;DHT22;5880;52.342;9.662;2023-04-03T16:37:33;10.40;30.20
11647;DHT22;5880;52.342;9.662;2023-04-03T16:39:58;10.90;30.20
11647;DHT22;5880;52.342;9.662;2023-04-03T16:42:25;10.70;29.70
11647;DHT22;5880;52.342;9.662;2023-04-03T16:44:51;10.70;30.50
11647;DHT22;5880;52.342;9.662;2023-04-03T16:47:16;10.70;30.90
11647;DHT22;5880;52.342;9.662;2023-04-03T16:49:44;10.80;30.30
11647;DHT22;5880;52.342;9.662;2023-04-03T16:52:10;10.80;30.30
11647;DHT22;5880;52.342;9.662;2023-04-03T16:54:36;10.80;30.10
11647;DHT22;5880;52.342;9.662;2023-04-03T16:57:02;10.80;29.30
11647;DHT22;5880;52.342;9.662;2023-04-03T16:59:27;10.80;29.40
11647;DHT22;5880;52.342;9.662;2023-04-03T17:01:53;10.80;29.10
11647;DHT22;5880;52.342;9.662;2023-04-03T17:04:19;10.70;28.60
11647;DHT22;5880;52.342;9.662;2023-04-03T17:06:45;10.60;28.60
11647;DHT22;5880;52.342;9.662;2023-04-03T17:09:11;10.60;29.00
11647;DHT22;5880;52.342;9.662;2023-04-03T17:11:37;10.50;29.30
11647;DHT22;5880;52.342;9.662;2023-04-03T17:14:03;10.50;29.50
11647;DHT22;5880;52.342;9.662;2023-04-03T17:16:31;10.40;29.90
11647;DHT22;5880;52.342;9.662;2023-04-03T17:18:59;10.40;29.60
11647;DHT22;5880;52.342;9.662;2023-04-03T17:21:25;10.30;30.00
11647;DHT22;5880;52.342;9.662;2023-04-03T17:23:57;10.30;30.10
11647;DHT22;5880;52.342;9.662;2023-04-03T17:26:26;10.30;30.20
11647;DHT22;5880;52.342;9.662;2023-04-03T17:28:52;10.20;30.40
11647;DHT22;5880;52.342;9.662;2023-04-03T17:31:19;10.20;30.30
11647;DHT22;5880;52.342;9.662;2023-04-03T17:33:45;10.20;30.50
11647;DHT22;5880;52.342;9.662;2023-04-03T17:36:10;10.20;30.20
11647;DHT22;5880;52.342;9.662;2023-04-03T17:38:37;10.20;29.60
11647;DHT22;5880;52.342;9.662;2023-04-03T17:41:05;10.20;30.30
11647;DHT22;5880;52.342;9.662;2023-04-03T17:43:33;10.10;30.60
11647;DHT22;5880;52.342;9.662;2023-04-03T17:46:01;10.10;31.00